Airfield :
LOGIN :

Register | Disclaimer

   EN    FR    IT 

 










Legend :    VFR   Marginal VFR   IFR   Intensive IFR   Very Intensive IFR
Visi :
Ceiling :
>= 8 km
>= 3000ft
5 to 8 km
1000 to 3000 ft
1500m to 5 km
500 to 1000 ft
800 to 1500m
200 to 500 ft
< 800m
< 200 ft
Symbols :   Thunderstorms  Fog  Heavy snow  Heavy precipitations  Wind > 20 kt
SIGMETs :     Misc.  Thunderstorms  Icing  Turbulence  Mountain Waves  Volcanic Ashes






- Airport Elevation : 1084 ft
- IATA code : EPL


LFSG - Épinal-Mirecourt

CURRENT METAR :
  • 100500Z AUTO 24006KT CAVOK 00/M01 Q1027

EXPIRED METARs :
  • 100430Z AUTO 26004KT 230V290 CAVOK 01/M01 Q1027
  • 100400Z AUTO 22004KT CAVOK 01/00 Q1027
  • 100330Z AUTO 26004KT 220V300 9999 FEW012 SCT034 02/00 Q1026
  • 100300Z AUTO 28006KT 220V300 9999 FEW036 02/00 Q1026
  • 100230Z AUTO 28005KT 9999 FEW030 02/00 Q1025

TAF N/A



MET'MAP, your aeronautical weather chart ! - Copyright ORBIFLY December 2007 - Disclaimer

ORBIFLY MET'MAP TEAM :

Programming & Development : Alexandra Zaïnal
Concept & original design : Baudouin d'Aumeries
Assistance for programming : Marc-Olivier Méhu
Technical & hardware support : Manuel Goepfert

Contact : metmap@orbifly.com




SOURCES & CREDITS :

   NOAA